createdAt,value
2023-03-19T00:00:33.672Z,75.35
2023-03-19T00:03:02.087Z,75.67
2023-03-19T00:05:30.528Z,76.56
2023-03-19T00:07:58.816Z,76.32
2023-03-19T00:10:27.184Z,76.91
2023-03-19T00:12:55.814Z,76.71
2023-03-19T00:15:25.579Z,77.27
2023-03-19T00:17:54.427Z,76.74
2023-03-19T00:20:22.790Z,77.04
2023-03-19T00:22:51.551Z,77.01
2023-03-19T00:25:20.776Z,76.79
2023-03-19T00:27:49.174Z,76.22
2023-03-19T00:30:17.814Z,77.24
2023-03-19T00:32:48.285Z,76.79
2023-03-19T00:35:16.738Z,76.34
2023-03-19T00:37:45.379Z,75.90
2023-03-19T00:40:14.479Z,75.85
2023-03-19T00:42:44.883Z,75.92
2023-03-19T00:45:14.151Z,76.16
2023-03-19T00:47:42.507Z,76.00
2023-03-19T00:50:13.082Z,75.83
2023-03-19T00:52:41.756Z,75.81
2023-03-19T00:55:11.035Z,75.92
2023-03-19T00:57:39.405Z,75.88
2023-03-19T01:00:10.897Z,76.70
2023-03-19T01:02:39.332Z,77.37
2023-03-19T01:05:09.662Z,77.70
2023-03-19T01:07:39.425Z,77.00
2023-03-19T01:10:08.573Z,77.39
2023-03-19T01:12:36.944Z,77.74
2023-03-19T01:15:07.106Z,78.34
2023-03-19T01:17:35.708Z,78.20
2023-03-19T01:20:04.668Z,77.61
2023-03-19T01:22:34.905Z,78.09
2023-03-19T01:25:06.047Z,78.45
2023-03-19T01:27:34.860Z,78.26
2023-03-19T01:30:03.692Z,78.14
2023-03-19T01:33:07.607Z,78.42
2023-03-19T01:35:43.866Z,78.48
2023-03-19T01:38:12.251Z,78.58
2023-03-19T01:40:47.558Z,78.47
2023-03-19T01:43:18.682Z,78.32
2023-03-19T01:45:58.371Z,78.57
2023-03-19T01:48:50.818Z,78.19
2023-03-19T01:51:23.131Z,78.09
2023-03-19T01:53:59.028Z,79.64
2023-03-19T01:56:37.811Z,80.90
2023-03-19T01:59:12.394Z,81.73
2023-03-19T02:02:01.854Z,82.42
2023-03-19T02:04:30.976Z,82.85
2023-03-19T02:07:00.138Z,83.97
2023-03-19T02:09:28.668Z,85.31
2023-03-19T02:11:58.435Z,85.72
2023-03-19T02:14:27.248Z,85.75
2023-03-19T02:16:56.021Z,85.50
2023-03-19T02:19:28.032Z,86.26
2023-03-19T02:21:56.639Z,86.92
2023-03-19T02:24:27.431Z,87.62
2023-03-19T02:27:05.502Z,88.24
2023-03-19T02:29:34.313Z,88.48
2023-03-19T02:32:03.728Z,89.60
2023-03-19T02:34:37.639Z,89.45
2023-03-19T02:37:09.649Z,89.45
2023-03-19T02:39:41.725Z,89.71
2023-03-19T02:42:12.910Z,89.88
2023-03-19T02:44:42.232Z,90.27
2023-03-19T02:47:10.817Z,89.77
2023-03-19T02:49:39.141Z,89.45
2023-03-19T02:52:07.678Z,89.54
2023-03-19T02:54:36.243Z,89.48
2023-03-19T02:57:04.799Z,89.81
2023-03-19T02:59:34.545Z,90.49
2023-03-19T03:02:03.212Z,90.83
2023-03-19T03:04:32.231Z,91.15
2023-03-19T03:07:00.981Z,91.98
2023-03-19T03:09:29.359Z,92.54
2023-03-19T03:11:58.519Z,92.85
2023-03-19T03:14:27.029Z,93.60
2023-03-19T03:16:57.437Z,92.95
2023-03-19T03:19:25.889Z,92.25
2023-03-19T03:21:54.731Z,93.00
2023-03-19T03:24:23.082Z,92.01
2023-03-19T03:26:51.445Z,90.03
2023-03-19T03:29:21.534Z,88.52
2023-03-19T03:31:49.958Z,86.34
2023-03-19T03:34:19.752Z,85.59
2023-03-19T03:36:48.378Z,84.22
2023-03-19T03:39:17.043Z,83.50
2023-03-19T03:41:45.854Z,83.35
2023-03-19T03:44:14.602Z,84.24
2023-03-19T03:46:43.767Z,85.78
2023-03-19T03:49:12.703Z,87.36
2023-03-19T03:51:43.080Z,87.90
2023-03-19T03:54:11.526Z,87.94
2023-03-19T03:56:39.946Z,88.35
2023-03-19T03:59:08.346Z,89.45
2023-03-19T04:01:36.812Z,89.87
2023-03-19T04:04:06.297Z,90.44
2023-03-19T04:06:35.114Z,90.80
2023-03-19T04:09:34.430Z,91.54
2023-03-19T04:12:02.938Z,92.27
2023-03-19T04:14:31.273Z,92.86
2023-03-19T04:16:59.999Z,93.10
2023-03-19T04:19:28.501Z,93.75
2023-03-19T04:21:56.740Z,93.99
2023-03-19T04:24:25.914Z,93.83
2023-03-19T04:26:55.776Z,93.90
2023-03-19T04:29:24.253Z,95.41
2023-03-19T04:31:53.147Z,95.97
2023-03-19T04:34:21.589Z,96.24
2023-03-19T04:36:51.009Z,96.13
2023-03-19T04:39:20.170Z,96.44
2023-03-19T04:41:49.288Z,96.97
2023-03-19T04:44:38.605Z,97.52
2023-03-19T04:47:07.506Z,97.82
2023-03-19T04:49:48.958Z,97.47
2023-03-19T04:52:19.846Z,97.09
2023-03-19T04:54:49.711Z,97.27
2023-03-19T04:57:19.047Z,97.44
2023-03-19T04:59:51.524Z,97.20
2023-03-19T05:02:22.092Z,97.92
2023-03-19T05:04:51.462Z,97.86
2023-03-19T05:07:19.810Z,97.85
2023-03-19T05:09:48.981Z,98.08
2023-03-19T05:12:18.415Z,97.85
2023-03-19T05:14:52.189Z,98.27
2023-03-19T05:17:29.344Z,98.22
2023-03-19T05:20:09.586Z,98.25
2023-03-19T05:22:40.529Z,98.41
2023-03-19T05:25:10.044Z,98.63
2023-03-19T05:27:41.734Z,98.45
2023-03-19T05:30:17.822Z,98.65
2023-03-19T05:32:58.453Z,99.17
2023-03-19T05:35:36.931Z,99.48
2023-03-19T05:38:11.218Z,99.50
2023-03-19T05:40:42.121Z,99.91
2023-03-19T05:43:23.525Z,99.97
2023-03-19T05:45:54.356Z,99.83
2023-03-19T05:48:28.127Z,100.00
2023-03-19T05:50:56.791Z,100.00
2023-03-19T05:53:26.628Z,100.00
2023-03-19T05:56:27.120Z,100.00
2023-03-19T05:59:15.700Z,100.00
2023-03-19T06:01:52.023Z,100.00
2023-03-19T06:04:20.694Z,100.00
2023-03-19T06:06:49.841Z,100.00
2023-03-19T06:09:19.409Z,100.00
2023-03-19T06:11:54.081Z,100.00
2023-03-19T06:14:42.664Z,100.00
2023-03-19T06:17:44.803Z,100.00
2023-03-19T06:20:17.064Z,100.00
2023-03-19T06:22:45.904Z,100.00
2023-03-19T06:25:14.371Z,100.00
2023-03-19T06:27:43.457Z,100.00
2023-03-19T06:30:26.881Z,100.00
2023-03-19T06:32:58.765Z,100.00
2023-03-19T06:35:29.181Z,100.00
2023-03-19T06:37:57.657Z,100.00
2023-03-19T06:40:25.985Z,100.00
2023-03-19T06:42:54.678Z,100.00
2023-03-19T06:45:23.006Z,100.00
2023-03-19T06:47:53.457Z,100.00
2023-03-19T06:50:23.359Z,100.00
2023-03-19T06:52:52.170Z,100.00
2023-03-19T06:55:21.075Z,100.00
2023-03-19T06:57:50.662Z,100.00
2023-03-19T07:00:19.757Z,100.00
2023-03-19T07:02:48.281Z,99.53
2023-03-19T07:05:16.776Z,100.00
2023-03-19T07:07:46.504Z,100.00
2023-03-19T07:10:14.963Z,99.73
2023-03-19T07:12:43.250Z,99.22
2023-03-19T07:15:12.657Z,97.22
2023-03-19T07:17:41.005Z,96.90
2023-03-19T07:20:10.194Z,98.05
2023-03-19T07:22:38.537Z,98.41
2023-03-19T07:25:09.307Z,98.03
2023-03-19T07:27:37.878Z,96.81
2023-03-19T07:30:06.907Z,94.95
2023-03-19T07:32:35.244Z,92.68
2023-03-19T07:35:03.601Z,93.98
2023-03-19T07:37:32.087Z,89.82
2023-03-19T07:40:00.470Z,88.57
2023-03-19T07:42:30.743Z,82.29
2023-03-19T07:44:59.081Z,82.87
2023-03-19T07:47:29.426Z,79.69
2023-03-19T07:49:58.247Z,78.05
2023-03-19T07:52:26.649Z,75.82
2023-03-19T07:54:55.829Z,72.74
2023-03-19T07:57:25.549Z,72.85
2023-03-19T07:59:55.278Z,73.61
2023-03-19T08:02:23.887Z,72.72
2023-03-19T08:04:52.422Z,71.43
2023-03-19T08:07:20.827Z,68.78
2023-03-19T08:09:49.282Z,69.46
2023-03-19T08:12:17.596Z,67.65
2023-03-19T08:14:45.950Z,66.95
2023-03-19T08:17:16.013Z,67.48
2023-03-19T08:19:44.462Z,66.59
2023-03-19T08:22:13.178Z,66.87
2023-03-19T08:24:41.486Z,65.62
2023-03-19T08:27:10.165Z,65.88
2023-03-19T08:29:38.474Z,65.34
2023-03-19T08:32:07.585Z,64.12
2023-03-19T08:34:37.295Z,64.74
2023-03-19T08:37:06.038Z,64.33
2023-03-19T08:39:34.332Z,63.56
2023-03-19T08:42:02.673Z,63.21
2023-03-19T08:44:31.109Z,64.36
2023-03-19T08:46:59.412Z,63.29
2023-03-19T08:49:27.999Z,63.01
2023-03-19T08:51:57.812Z,63.39
2023-03-19T08:54:26.682Z,62.15
2023-03-19T08:56:55.343Z,62.84
2023-03-19T08:59:23.579Z,62.92
2023-03-19T09:01:53.180Z,61.56
2023-03-19T09:04:22.108Z,62.09
2023-03-19T09:06:51.671Z,60.92
2023-03-19T09:09:22.150Z,62.18
2023-03-19T09:11:50.560Z,60.11
2023-03-19T09:14:20.178Z,60.09
2023-03-19T09:16:48.532Z,60.95
2023-03-19T09:19:17.578Z,61.54
2023-03-19T09:21:46.421Z,61.01
2023-03-19T09:24:14.773Z,59.86
2023-03-19T09:26:44.512Z,60.82
2023-03-19T09:29:12.785Z,59.99
2023-03-19T09:31:41.878Z,61.33
2023-03-19T09:34:11.264Z,59.13
2023-03-19T09:36:39.602Z,59.54
2023-03-19T09:39:08.132Z,61.20
2023-03-19T09:41:39.646Z,59.07
2023-03-19T09:44:13.061Z,59.77
2023-03-19T09:46:44.627Z,59.98
2023-03-19T09:49:16.404Z,58.20
2023-03-19T09:51:46.767Z,58.73
2023-03-19T09:54:22.628Z,56.54
2023-03-19T09:56:51.080Z,57.28
2023-03-19T09:59:21.607Z,57.36
2023-03-19T10:01:51.650Z,56.58
2023-03-19T10:04:37.086Z,55.88
2023-03-19T10:07:09.689Z,55.35
2023-03-19T10:09:46.380Z,56.40
2023-03-19T10:12:22.273Z,54.92
2023-03-19T10:15:00.902Z,54.69
2023-03-19T10:17:30.762Z,55.57
2023-03-19T10:20:01.603Z,55.23
2023-03-19T10:22:31.215Z,56.24
2023-03-19T10:24:59.792Z,56.06
2023-03-19T10:27:29.357Z,54.14
2023-03-19T10:29:59.053Z,54.70
2023-03-19T10:32:30.563Z,55.72
2023-03-19T10:34:59.271Z,54.24
2023-03-19T10:37:28.982Z,54.83
2023-03-19T10:39:58.462Z,54.35
2023-03-19T10:42:45.727Z,54.98
2023-03-19T10:45:22.498Z,54.07
2023-03-19T10:47:50.992Z,54.36
2023-03-19T10:50:20.526Z,55.93
2023-03-19T10:52:52.614Z,56.00
2023-03-19T10:55:24.975Z,56.11
2023-03-19T10:57:57.675Z,56.95
2023-03-19T11:00:28.278Z,55.98
2023-03-19T11:02:57.143Z,57.37
2023-03-19T11:05:28.331Z,57.18
2023-03-19T11:08:00.323Z,57.78
2023-03-19T11:10:30.126Z,57.90
2023-03-19T11:12:59.238Z,58.19
2023-03-19T11:15:30.534Z,59.08
2023-03-19T11:17:59.511Z,59.27
2023-03-19T11:20:30.612Z,58.94
2023-03-19T11:23:02.773Z,60.46
2023-03-19T11:25:32.169Z,60.28
2023-03-19T11:28:01.813Z,61.34
2023-03-19T11:30:37.675Z,61.26
2023-03-19T11:33:32.982Z,61.16
2023-03-19T11:36:04.824Z,61.10
2023-03-19T11:38:37.730Z,62.15
2023-03-19T11:41:11.885Z,62.34
2023-03-19T11:43:45.606Z,63.59
2023-03-19T11:46:21.422Z,63.71
2023-03-19T11:49:17.028Z,63.90
2023-03-19T11:51:48.363Z,63.66
2023-03-19T11:54:22.337Z,64.40
2023-03-19T11:56:51.902Z,65.55
2023-03-19T11:59:33.441Z,66.68
2023-03-19T12:02:33.776Z,67.58
2023-03-19T12:05:10.565Z,67.40
2023-03-19T12:07:42.532Z,67.64
2023-03-19T12:10:29.110Z,69.37
2023-03-19T12:13:01.904Z,70.09
2023-03-19T12:15:34.285Z,70.85
2023-03-19T12:18:08.574Z,71.42
2023-03-19T12:20:41.662Z,71.05
2023-03-19T12:23:15.587Z,72.27
2023-03-19T12:26:06.137Z,72.81
2023-03-19T12:28:36.030Z,73.82
2023-03-19T12:31:23.617Z,74.58
2023-03-19T12:33:57.766Z,76.00
2023-03-19T12:36:29.376Z,78.58
2023-03-19T12:38:59.664Z,81.83
2023-03-19T12:41:29.786Z,85.61
2023-03-19T12:44:00.413Z,86.87
2023-03-19T12:46:30.201Z,88.16
2023-03-19T12:49:01.346Z,90.21
2023-03-19T12:51:31.312Z,91.77
2023-03-19T12:54:01.451Z,91.98
2023-03-19T12:56:33.000Z,95.74
2023-03-19T12:59:03.173Z,95.69
2023-03-19T13:01:33.049Z,98.44
2023-03-19T13:04:05.013Z,98.52
2023-03-19T13:06:35.774Z,100.00
2023-03-19T13:09:07.383Z,100.00
2023-03-19T13:11:39.309Z,100.00
2023-03-19T13:14:12.251Z,100.00
2023-03-19T13:16:42.914Z,100.00
2023-03-19T13:19:19.182Z,100.00
2023-03-19T13:21:49.643Z,100.00
2023-03-19T13:24:21.826Z,100.00
2023-03-19T13:26:50.302Z,100.00
2023-03-19T13:29:20.735Z,100.00
2023-03-19T13:31:49.370Z,100.00
2023-03-19T13:34:25.647Z,100.00
2023-03-19T13:36:56.994Z,100.00
2023-03-19T13:39:28.267Z,100.00
2023-03-19T13:42:10.201Z,100.00
2023-03-19T13:44:42.561Z,100.00
2023-03-19T13:47:44.284Z,100.00
2023-03-19T13:50:31.220Z,100.00
2023-03-19T13:53:23.994Z,100.00
2023-03-19T13:55:54.701Z,100.00
2023-03-19T13:58:42.313Z,100.00
2023-03-19T14:01:29.659Z,100.00
2023-03-19T14:03:59.062Z,100.00
2023-03-19T14:06:33.917Z,100.00
2023-03-19T14:09:02.423Z,100.00
2023-03-19T14:11:31.749Z,100.00
2023-03-19T14:14:02.574Z,100.00
2023-03-19T14:16:35.046Z,100.00
2023-03-19T14:19:05.034Z,100.00
2023-03-19T14:21:36.452Z,100.00
2023-03-19T14:24:54.895Z,100.00
2023-03-19T14:27:15.991Z,99.69
2023-03-19T14:29:45.397Z,99.62
2023-03-19T14:32:17.223Z,100.00
2023-03-19T14:34:45.822Z,99.42
2023-03-19T14:37:20.969Z,97.03
2023-03-19T14:39:51.621Z,98.14
2023-03-19T14:42:21.323Z,98.50
2023-03-19T14:45:21.942Z,99.20
2023-03-19T14:48:14.769Z,96.74
2023-03-19T14:51:08.419Z,94.12
2023-03-19T14:53:40.017Z,95.98
2023-03-19T14:56:14.316Z,97.05
2023-03-19T14:58:50.494Z,96.00
2023-03-19T15:01:19.176Z,94.64
2023-03-19T15:03:47.629Z,92.42
2023-03-19T15:06:16.075Z,92.04
2023-03-19T15:08:46.281Z,92.64
2023-03-19T15:11:39.888Z,92.47
2023-03-19T15:14:29.453Z,93.27
2023-03-19T15:17:00.755Z,92.58
2023-03-19T15:19:30.179Z,93.20
2023-03-19T15:22:11.217Z,93.58
2023-03-19T15:24:41.091Z,94.41
2023-03-19T15:27:19.898Z,92.81
2023-03-19T15:29:50.683Z,94.17
2023-03-19T15:33:02.723Z,92.91
2023-03-19T15:35:22.294Z,93.16
2023-03-19T15:37:52.606Z,93.86
2023-03-19T15:40:22.717Z,93.42
2023-03-19T15:42:51.227Z,92.98
2023-03-19T15:45:20.245Z,93.89
2023-03-19T15:47:50.089Z,94.59
2023-03-19T15:50:19.162Z,94.38
2023-03-19T15:52:49.367Z,94.77
2023-03-19T15:55:17.753Z,94.42
2023-03-19T15:57:47.556Z,96.05
2023-03-19T16:00:16.701Z,95.56
2023-03-19T16:02:45.417Z,95.83
2023-03-19T16:05:25.363Z,96.79
2023-03-19T16:07:57.044Z,96.20
2023-03-19T16:10:36.968Z,95.71
2023-03-19T16:13:39.108Z,96.17
2023-03-19T16:16:08.149Z,95.57
2023-03-19T16:18:45.631Z,95.67
2023-03-19T16:21:16.755Z,95.72
2023-03-19T16:23:45.922Z,95.93
2023-03-19T16:26:18.084Z,95.85
2023-03-19T16:28:50.713Z,95.77
2023-03-19T16:31:23.953Z,95.38
2023-03-19T16:33:53.455Z,95.88
2023-03-19T16:36:22.534Z,96.18
2023-03-19T16:38:56.214Z,96.58
2023-03-19T16:41:32.399Z,97.04
2023-03-19T16:44:17.405Z,98.08
2023-03-19T16:46:45.991Z,98.67
2023-03-19T16:49:14.427Z,100.00
2023-03-19T16:51:43.002Z,100.00
2023-03-19T16:54:14.133Z,99.98
2023-03-19T16:56:42.463Z,100.00
2023-03-19T16:59:14.380Z,100.00
2023-03-19T17:01:42.910Z,100.00
2023-03-19T17:04:13.395Z,100.00
2023-03-19T17:06:41.863Z,100.00
2023-03-19T17:09:10.196Z,100.00
2023-03-19T17:11:39.987Z,100.00
2023-03-19T17:14:08.862Z,100.00
2023-03-19T17:16:38.602Z,100.00
2023-03-19T17:19:07.458Z,100.00
2023-03-19T17:21:35.978Z,100.00
2023-03-19T17:24:09.359Z,100.00
2023-03-19T17:26:38.056Z,100.00
2023-03-19T17:29:06.342Z,100.00
2023-03-19T17:31:34.810Z,100.00
2023-03-19T17:34:05.914Z,100.00
2023-03-19T17:36:34.318Z,100.00
2023-03-19T17:39:02.827Z,100.00
2023-03-19T17:41:32.941Z,100.00
2023-03-19T17:44:03.197Z,100.00
2023-03-19T17:46:33.359Z,100.00
2023-03-19T17:49:01.720Z,100.00
2023-03-19T17:51:31.489Z,100.00
2023-03-19T17:54:00.722Z,100.00
2023-03-19T17:56:29.178Z,100.00
2023-03-19T17:58:57.758Z,100.00
2023-03-19T18:01:27.371Z,100.00
2023-03-19T18:03:56.526Z,100.00
2023-03-19T18:06:25.915Z,100.00
2023-03-19T18:08:56.048Z,100.00
2023-03-19T18:11:24.435Z,100.00
2023-03-19T18:13:52.780Z,100.00
2023-03-19T18:16:24.322Z,100.00
2023-03-19T18:18:52.923Z,100.00
2023-03-19T18:21:21.235Z,100.00
2023-03-19T18:23:50.099Z,100.00
2023-03-19T18:26:19.911Z,100.00
2023-03-19T18:28:48.243Z,100.00
2023-03-19T18:31:18.102Z,100.00
2023-03-19T18:33:47.055Z,100.00
2023-03-19T18:36:16.502Z,100.00
2023-03-19T18:38:44.831Z,100.00
2023-03-19T18:41:15.703Z,100.00
2023-03-19T18:43:45.775Z,100.00
2023-03-19T18:46:14.719Z,100.00
2023-03-19T18:48:43.004Z,100.00
2023-03-19T18:51:12.234Z,100.00
2023-03-19T18:53:40.568Z,100.00
2023-03-19T18:56:17.187Z,100.00
2023-03-19T18:58:47.034Z,100.00
2023-03-19T19:01:16.281Z,100.00
2023-03-19T19:03:45.320Z,100.00
2023-03-19T19:06:18.324Z,100.00
2023-03-19T19:08:46.599Z,100.00
2023-03-19T19:11:14.893Z,100.00
2023-03-19T19:13:55.360Z,100.00
2023-03-19T19:16:27.975Z,100.00
2023-03-19T19:18:56.321Z,100.00
2023-03-19T19:21:24.670Z,100.00
2023-03-19T19:23:53.031Z,100.00
2023-03-19T19:26:23.275Z,100.00
2023-03-19T19:28:51.598Z,100.00
2023-03-19T19:31:24.458Z,100.00
2023-03-19T19:33:54.552Z,100.00
2023-03-19T19:36:23.387Z,100.00
2023-03-19T19:38:52.188Z,100.00
2023-03-19T19:41:21.526Z,100.00
2023-03-19T19:43:50.294Z,100.00
2023-03-19T19:46:19.008Z,100.00
2023-03-19T19:48:47.347Z,100.00
2023-03-19T19:51:20.672Z,100.00
2023-03-19T19:53:49.125Z,100.00
2023-03-19T19:56:17.917Z,100.00
2023-03-19T19:58:46.734Z,100.00
2023-03-19T20:01:16.773Z,100.00
2023-03-19T20:03:45.194Z,100.00
2023-03-19T20:06:13.596Z,100.00
2023-03-19T20:08:43.338Z,100.00
2023-03-19T20:11:16.668Z,100.00
2023-03-19T20:13:49.354Z,100.00
2023-03-19T20:16:18.157Z,100.00
2023-03-19T20:18:47.753Z,100.00
2023-03-19T20:21:16.905Z,100.00
2023-03-19T20:23:46.837Z,100.00
2023-03-19T20:26:15.673Z,100.00
2023-03-19T20:28:44.023Z,100.00
2023-03-19T20:31:17.155Z,100.00
2023-03-19T20:33:45.553Z,100.00
2023-03-19T20:36:15.199Z,100.00
2023-03-19T20:38:44.026Z,100.00
2023-03-19T20:41:20.251Z,100.00
2023-03-19T20:43:48.622Z,100.00
2023-03-19T20:46:17.001Z,100.00
2023-03-19T20:48:45.299Z,100.00
2023-03-19T20:51:17.458Z,100.00
2023-03-19T20:53:45.901Z,100.00
2023-03-19T20:56:16.044Z,100.00
2023-03-19T20:58:45.961Z,100.00
2023-03-19T21:01:15.596Z,100.00
2023-03-19T21:03:44.314Z,100.00
2023-03-19T21:06:16.338Z,100.00
2023-03-19T21:08:45.877Z,100.00
2023-03-19T21:11:15.938Z,100.00
2023-03-19T21:13:46.392Z,100.00
2023-03-19T21:16:18.513Z,100.00
2023-03-19T21:18:47.076Z,100.00
2023-03-19T21:21:15.868Z,100.00
2023-03-19T21:23:45.222Z,100.00
2023-03-19T21:26:16.675Z,100.00
2023-03-19T21:28:46.766Z,100.00
2023-03-19T21:31:17.916Z,100.00
2023-03-19T21:33:46.647Z,100.00
2023-03-19T21:36:15.196Z,100.00
2023-03-19T21:38:43.579Z,100.00
2023-03-19T21:41:17.986Z,100.00
2023-03-19T21:43:48.707Z,100.00
2023-03-19T21:46:24.752Z,100.00
2023-03-19T21:48:53.833Z,100.00
2023-03-19T21:51:22.174Z,100.00
2023-03-19T21:53:50.472Z,100.00
2023-03-19T21:56:22.208Z,100.00
2023-03-19T21:58:52.775Z,100.00
2023-03-19T22:01:22.752Z,100.00
2023-03-19T22:03:51.204Z,100.00
2023-03-19T22:06:19.619Z,100.00
2023-03-19T22:08:48.826Z,100.00
2023-03-19T22:11:18.440Z,100.00
2023-03-19T22:13:47.323Z,100.00
2023-03-19T22:16:20.199Z,100.00
2023-03-19T22:18:48.610Z,100.00
2023-03-19T22:21:17.908Z,100.00
2023-03-19T22:23:46.805Z,100.00
2023-03-19T22:26:30.439Z,100.00
2023-03-19T22:28:59.738Z,100.00
2023-03-19T22:31:29.635Z,100.00
2023-03-19T22:33:58.172Z,100.00
2023-03-19T22:36:26.446Z,100.00
2023-03-19T22:38:54.756Z,100.00
2023-03-19T22:41:26.666Z,100.00
2023-03-19T22:43:54.956Z,100.00
2023-03-19T22:46:24.943Z,100.00
2023-03-19T22:48:54.773Z,100.00
2023-03-19T22:51:24.095Z,100.00
2023-03-19T22:53:52.442Z,100.00
2023-03-19T22:56:22.887Z,100.00
2023-03-19T22:58:51.482Z,100.00
2023-03-19T23:01:30.135Z,100.00
2023-03-19T23:04:00.416Z,100.00
2023-03-19T23:06:30.842Z,100.00
2023-03-19T23:08:59.448Z,100.00
2023-03-19T23:11:27.789Z,100.00
2023-03-19T23:13:56.800Z,100.00
2023-03-19T23:16:25.763Z,100.00
2023-03-19T23:21:23.729Z,100.00
2023-03-19T23:23:52.389Z,100.00
2023-03-19T23:26:25.630Z,100.00
2023-03-19T23:28:54.208Z,100.00
2023-03-19T23:31:22.658Z,100.00
2023-03-19T23:33:51.054Z,100.00
2023-03-19T23:36:20.764Z,100.00
2023-03-19T23:38:51.671Z,100.00
2023-03-19T23:41:21.597Z,100.00
2023-03-19T23:43:49.945Z,100.00
2023-03-19T23:46:18.303Z,100.00
2023-03-19T23:48:46.959Z,100.00
2023-03-19T23:51:15.610Z,100.00
2023-03-19T23:53:44.081Z,100.00
2023-03-19T23:56:18.577Z,100.00
2023-03-19T23:58:47.755Z,100.00
